createdAt,value
2023-03-29T00:01:06.848Z,100655.59
2023-03-29T00:03:35.275Z,100658.31
2023-03-29T00:06:04.228Z,100660.54
2023-03-29T00:08:38.163Z,100660.23
2023-03-29T00:11:07.721Z,100654.12
2023-03-29T00:13:36.264Z,100660.07
2023-03-29T00:16:04.916Z,100661.20
2023-03-29T00:18:33.429Z,100658.52
2023-03-29T00:21:02.627Z,100654.95
2023-03-29T00:23:31.427Z,100655.56
2023-03-29T00:26:00.000Z,100658.05
2023-03-29T00:28:28.414Z,100656.42
2023-03-29T00:31:09.740Z,100658.62
2023-03-29T00:33:39.788Z,100654.54
2023-03-29T00:36:10.426Z,100649.42
2023-03-29T00:38:40.021Z,100652.36
2023-03-29T00:41:09.326Z,100652.48
2023-03-29T00:44:06.832Z,100650.96
2023-03-29T00:46:37.277Z,100652.71
2023-03-29T00:49:12.971Z,100650.39
2023-03-29T00:51:43.510Z,100651.75
2023-03-29T00:54:18.874Z,100656.56
2023-03-29T00:56:51.386Z,100656.60
2023-03-29T00:59:24.807Z,100658.44
2023-03-29T01:02:22.968Z,100654.95
2023-03-29T01:04:59.435Z,100658.56
2023-03-29T01:07:35.474Z,100663.17
2023-03-29T01:10:17.485Z,100663.86
2023-03-29T01:12:53.473Z,100666.41
2023-03-29T01:15:28.522Z,100664.23
2023-03-29T01:17:58.592Z,100667.54
2023-03-29T01:20:52.717Z,100664.14
2023-03-29T01:23:46.081Z,100663.25
2023-03-29T01:26:32.687Z,100668.25
2023-03-29T01:29:23.493Z,100670.84
2023-03-29T01:31:58.278Z,100674.55
2023-03-29T01:34:43.578Z,100674.89
2023-03-29T01:37:44.333Z,100674.64
2023-03-29T01:40:12.815Z,100676.02
2023-03-29T01:42:53.482Z,100677.52
2023-03-29T01:45:40.216Z,100676.75
2023-03-29T01:48:20.360Z,100672.91
2023-03-29T01:51:05.930Z,100675.50
2023-03-29T01:53:44.345Z,100679.24
2023-03-29T01:56:21.938Z,100678.96
2023-03-29T01:58:58.474Z,100677.95
2023-03-29T02:01:30.986Z,100683.36
2023-03-29T02:04:04.593Z,100682.77
2023-03-29T02:06:36.239Z,100682.81
2023-03-29T02:09:05.238Z,100682.87
2023-03-29T02:11:35.124Z,100678.73
2023-03-29T02:14:03.941Z,100684.79
2023-03-29T02:16:39.436Z,100682.99
2023-03-29T02:19:09.906Z,100684.26
2023-03-29T02:22:01.678Z,100688.77
2023-03-29T02:24:33.808Z,100692.58
2023-03-29T02:27:03.209Z,100691.27
2023-03-29T02:29:31.993Z,100694.26
2023-03-29T02:32:25.108Z,100697.98
2023-03-29T02:35:14.429Z,100702.96
2023-03-29T02:37:46.694Z,100707.77
2023-03-29T02:40:17.482Z,100702.24
2023-03-29T02:42:49.083Z,100707.27
2023-03-29T02:45:18.798Z,100711.84
2023-03-29T02:47:51.896Z,100716.95
2023-03-29T02:50:21.153Z,100725.45
2023-03-29T02:52:59.397Z,100724.60
2023-03-29T02:55:34.859Z,100723.70
2023-03-29T02:58:13.575Z,100727.82
2023-03-29T03:00:46.352Z,100731.27
2023-03-29T03:03:18.737Z,100733.03
2023-03-29T03:05:49.459Z,100734.39
2023-03-29T03:08:18.975Z,100739.83
2023-03-29T03:10:48.470Z,100743.61
2023-03-29T03:13:17.364Z,100749.35
2023-03-29T03:15:49.121Z,100753.42
2023-03-29T03:18:18.520Z,100758.39
2023-03-29T03:20:57.495Z,100758.89
2023-03-29T03:23:25.619Z,100768.48
2023-03-29T03:25:55.391Z,100770.89
2023-03-29T03:28:24.621Z,100777.57
2023-03-29T03:30:54.378Z,100779.63
2023-03-29T03:33:27.198Z,100782.48
2023-03-29T03:36:14.283Z,100778.06
2023-03-29T03:38:44.294Z,100779.73
2023-03-29T03:41:13.684Z,100775.73
2023-03-29T03:43:44.187Z,100776.48
2023-03-29T03:46:13.119Z,100773.86
2023-03-29T03:48:41.970Z,100777.17
2023-03-29T03:51:17.819Z,100782.56
2023-03-29T03:53:46.406Z,100779.33
2023-03-29T03:56:15.296Z,100784.40
2023-03-29T03:59:07.326Z,100784.79
2023-03-29T04:01:43.861Z,100783.34
2023-03-29T04:04:17.846Z,100786.27
2023-03-29T04:07:09.845Z,100786.34
2023-03-29T04:09:42.430Z,100792.31
2023-03-29T04:12:46.745Z,100805.02
2023-03-29T04:15:15.324Z,100812.09
2023-03-29T04:17:49.046Z,100819.87
2023-03-29T04:20:36.151Z,100829.25
2023-03-29T04:23:05.254Z,100835.92
2023-03-29T04:25:33.622Z,100843.27
2023-03-29T04:28:21.492Z,100849.42
2023-03-29T04:31:03.836Z,100857.98
2023-03-29T04:33:47.747Z,100859.05
2023-03-29T04:36:16.430Z,100865.43
2023-03-29T04:38:47.800Z,100867.61
2023-03-29T04:41:16.954Z,100872.73
2023-03-29T04:43:59.461Z,100875.75
2023-03-29T04:46:32.552Z,100873.06
2023-03-29T04:49:27.241Z,100870.86
2023-03-29T04:51:56.142Z,100876.33
2023-03-29T04:54:27.904Z,100880.72
2023-03-29T04:57:02.301Z,100883.73
2023-03-29T04:59:49.436Z,100884.95
2023-03-29T05:02:25.418Z,100888.48
2023-03-29T05:04:54.394Z,100897.05
2023-03-29T05:07:23.172Z,100907.60
2023-03-29T05:09:52.164Z,100906.90
2023-03-29T05:12:22.607Z,100911.95
2023-03-29T05:14:54.555Z,100911.96
2023-03-29T05:17:27.747Z,100911.36
2023-03-29T05:20:01.619Z,100909.55
2023-03-29T05:22:29.933Z,100904.68
2023-03-29T05:24:59.661Z,100907.67
2023-03-29T05:27:29.969Z,100911.92
2023-03-29T05:30:10.639Z,100912.12
2023-03-29T05:33:05.923Z,100914.40
2023-03-29T05:35:36.244Z,100910.19
2023-03-29T05:38:06.696Z,100913.30
2023-03-29T05:40:36.002Z,100917.23
2023-03-29T05:43:35.199Z,100918.16
2023-03-29T05:46:03.620Z,100914.85
2023-03-29T05:48:32.876Z,100929.46
2023-03-29T05:51:02.465Z,100932.23
2023-03-29T05:53:31.702Z,100944.30
2023-03-29T05:56:02.417Z,100951.55
2023-03-29T05:58:31.544Z,100954.98
2023-03-29T06:01:00.776Z,100961.35
2023-03-29T06:03:38.648Z,100968.19
2023-03-29T06:06:09.730Z,100973.09
2023-03-29T06:08:38.343Z,100970.79
2023-03-29T06:11:29.767Z,100971.80
2023-03-29T06:14:16.573Z,100971.86
2023-03-29T06:16:50.349Z,100972.82
2023-03-29T06:19:19.477Z,100972.04
2023-03-29T06:21:48.288Z,100976.13
2023-03-29T06:24:21.150Z,100978.70
2023-03-29T06:26:53.524Z,100979.27
2023-03-29T06:29:22.310Z,100981.29
2023-03-29T06:31:51.865Z,100977.18
2023-03-29T06:34:53.398Z,100980.42
2023-03-29T06:37:49.849Z,100984.73
2023-03-29T06:40:34.583Z,100987.22
2023-03-29T06:43:02.786Z,100995.59
2023-03-29T06:45:57.172Z,100998.83
2023-03-29T06:48:35.253Z,101002.20
2023-03-29T06:51:04.695Z,101002.79
2023-03-29T06:53:34.264Z,101004.23
2023-03-29T06:56:09.375Z,101009.33
2023-03-29T06:58:45.293Z,101007.63
2023-03-29T07:01:43.436Z,101008.58
2023-03-29T07:04:19.439Z,101010.48
2023-03-29T07:07:12.154Z,101023.97
2023-03-29T07:09:40.616Z,101017.64
2023-03-29T07:12:44.846Z,101018.45
2023-03-29T07:15:14.238Z,101012.95
2023-03-29T07:18:03.720Z,101011.23
2023-03-29T07:20:33.970Z,101009.66
2023-03-29T07:23:09.600Z,101017.95
2023-03-29T07:25:38.572Z,101010.10
2023-03-29T07:28:07.727Z,101011.28
2023-03-29T07:30:38.370Z,101010.73
2023-03-29T07:33:13.530Z,101009.95
2023-03-29T07:35:51.183Z,101014.75
2023-03-29T07:38:19.630Z,101002.22
2023-03-29T07:40:52.239Z,100995.34
2023-03-29T07:43:47.098Z,101002.02
2023-03-29T07:46:17.584Z,101008.67
2023-03-29T07:48:45.914Z,101007.10
2023-03-29T07:51:17.012Z,101008.62
2023-03-29T07:53:46.900Z,101007.21
2023-03-29T07:56:33.874Z,101007.98
2023-03-29T07:59:34.253Z,101007.91
2023-03-29T08:02:14.651Z,101005.64
2023-03-29T08:04:47.091Z,101003.85
2023-03-29T08:07:21.572Z,101002.23
2023-03-29T08:10:14.113Z,100999.10
2023-03-29T08:13:07.404Z,101003.67
2023-03-29T08:15:48.759Z,101002.52
2023-03-29T08:18:46.385Z,101000.48
2023-03-29T08:21:15.114Z,100999.57
2023-03-29T08:23:45.335Z,100994.19
2023-03-29T08:26:18.325Z,100992.36
2023-03-29T08:28:47.932Z,100997.67
2023-03-29T08:31:16.968Z,100996.23
2023-03-29T08:33:46.490Z,100993.84
2023-03-29T08:36:27.915Z,100992.27
2023-03-29T08:38:58.037Z,100992.93
2023-03-29T08:41:39.112Z,100987.80
2023-03-29T08:44:34.937Z,100984.13
2023-03-29T08:47:09.386Z,100982.61
2023-03-29T08:49:45.844Z,100988.52
2023-03-29T08:52:23.624Z,100990.67
2023-03-29T08:54:57.344Z,100988.09
2023-03-29T08:57:55.002Z,100989.94
2023-03-29T09:00:41.975Z,100986.98
2023-03-29T09:03:38.555Z,100988.27
2023-03-29T09:06:12.963Z,100986.67
2023-03-29T09:08:46.337Z,100990.54
2023-03-29T09:11:23.987Z,100992.17
2023-03-29T09:14:11.185Z,100991.43
2023-03-29T09:17:16.946Z,100989.59
2023-03-29T09:20:14.303Z,100992.77
2023-03-29T09:22:55.373Z,100988.27
2023-03-29T09:26:04.130Z,100989.20
2023-03-29T09:29:04.731Z,100996.89
2023-03-29T09:31:39.338Z,100997.42
2023-03-29T09:34:21.664Z,101005.03
2023-03-29T09:37:10.826Z,101020.34
2023-03-29T09:39:41.229Z,101030.10
2023-03-29T09:42:17.010Z,101036.30
2023-03-29T09:44:51.058Z,101043.88
2023-03-29T09:47:35.393Z,101055.80
2023-03-29T09:50:30.180Z,101076.33
2023-03-29T09:53:00.705Z,101083.12
2023-03-29T09:55:36.659Z,101089.15
2023-03-29T09:58:15.392Z,101069.65
2023-03-29T10:00:49.184Z,101059.13
2023-03-29T10:03:20.413Z,101050.25
2023-03-29T10:05:58.947Z,101053.77
2023-03-29T10:08:28.789Z,101046.45
2023-03-29T10:11:01.884Z,101050.16
2023-03-29T10:13:33.406Z,101042.89
2023-03-29T10:16:08.018Z,101042.45
2023-03-29T10:18:42.673Z,101044.19
2023-03-29T10:21:22.195Z,101042.86
2023-03-29T10:23:58.590Z,101039.41
2023-03-29T10:26:32.909Z,101038.62
2023-03-29T10:29:04.845Z,101040.75
2023-03-29T10:31:34.157Z,101042.02
2023-03-29T10:34:05.378Z,101040.74
2023-03-29T10:36:34.176Z,101044.63
2023-03-29T10:39:06.236Z,101045.86
2023-03-29T10:41:36.133Z,101050.06
2023-03-29T10:44:05.152Z,101045.45
2023-03-29T10:46:41.972Z,101040.34
2023-03-29T10:49:20.831Z,101041.17
2023-03-29T10:51:50.877Z,101040.52
2023-03-29T10:54:22.707Z,101041.41
2023-03-29T10:57:00.583Z,101044.54
2023-03-29T10:59:30.450Z,101043.95
2023-03-29T11:02:14.192Z,101038.55
2023-03-29T11:04:57.030Z,101039.18
2023-03-29T11:07:59.299Z,101035.34
2023-03-29T11:10:39.741Z,101032.20
2023-03-29T11:13:10.886Z,101031.23
2023-03-29T11:15:43.993Z,101034.55
2023-03-29T11:18:37.137Z,101025.20
2023-03-29T11:21:51.905Z,101025.72
2023-03-29T11:24:20.282Z,101027.28
2023-03-29T11:26:57.882Z,101019.29
2023-03-29T11:29:40.796Z,101018.88
2023-03-29T11:32:37.560Z,101022.71
2023-03-29T11:35:30.572Z,101019.08
2023-03-29T11:38:11.160Z,101018.33
2023-03-29T11:40:53.479Z,101016.69
2023-03-29T11:43:33.524Z,101021.68
2023-03-29T11:46:14.121Z,101023.67
2023-03-29T11:48:50.356Z,101015.98
2023-03-29T11:51:37.370Z,101013.02
2023-03-29T11:54:25.614Z,101015.77
2023-03-29T11:56:56.915Z,101013.98
2023-03-29T11:59:36.470Z,101021.01
2023-03-29T12:02:18.825Z,101011.29
2023-03-29T12:04:52.415Z,101016.08
2023-03-29T12:07:30.074Z,101014.67
2023-03-29T12:10:39.251Z,101014.98
2023-03-29T12:13:36.290Z,101018.04
2023-03-29T12:16:13.839Z,101012.75
2023-03-29T12:18:56.519Z,101019.53
2023-03-29T12:21:28.874Z,101015.17
2023-03-29T12:23:58.381Z,101014.39
2023-03-29T12:26:46.414Z,101018.89
2023-03-29T12:29:17.357Z,101018.89
2023-03-29T12:32:16.974Z,101016.26
2023-03-29T12:35:14.338Z,101021.52
2023-03-29T12:38:24.537Z,101025.55
2023-03-29T12:41:23.692Z,101024.14
2023-03-29T12:44:24.640Z,101025.70
2023-03-29T12:47:23.631Z,101033.30
2023-03-29T12:49:56.645Z,101032.52
2023-03-29T12:52:30.735Z,101026.51
2023-03-29T12:55:01.807Z,101019.42
2023-03-29T12:57:42.242Z,101019.03
2023-03-29T13:00:22.701Z,101016.13
2023-03-29T13:03:25.500Z,101020.65
2023-03-29T13:06:02.806Z,101022.83
2023-03-29T13:08:37.120Z,101017.92
2023-03-29T13:11:07.560Z,101022.05
2023-03-29T13:13:38.455Z,101018.48
2023-03-29T13:16:13.499Z,101024.21
2023-03-29T13:18:56.623Z,101028.20
2023-03-29T13:21:34.324Z,101017.91
2023-03-29T13:24:21.227Z,101023.66
2023-03-29T13:27:25.250Z,101020.69
2023-03-29T13:29:56.492Z,101022.30
2023-03-29T13:32:31.233Z,101035.05
2023-03-29T13:35:32.280Z,101034.46
2023-03-29T13:38:23.113Z,101038.56
2023-03-29T13:40:54.619Z,101038.85
2023-03-29T13:43:33.224Z,101038.38
2023-03-29T13:46:01.496Z,101035.35
2023-03-29T13:48:47.818Z,101033.85
2023-03-29T13:51:19.172Z,101028.77
2023-03-29T13:54:01.093Z,101030.30
2023-03-29T13:56:37.306Z,101027.11
2023-03-29T13:59:11.234Z,101028.95
2023-03-29T14:01:43.628Z,101031.46
2023-03-29T14:04:22.428Z,101027.69
2023-03-29T14:06:56.583Z,101031.73
2023-03-29T14:09:33.468Z,101038.73
2023-03-29T14:12:02.321Z,101040.02
2023-03-29T14:14:32.288Z,101038.43
2023-03-29T14:17:01.044Z,101038.96
2023-03-29T14:19:33.200Z,101044.90
2023-03-29T14:22:03.415Z,101048.94
2023-03-29T14:24:38.704Z,101048.84
2023-03-29T14:27:10.312Z,101051.88
2023-03-29T14:29:38.779Z,101051.81
2023-03-29T14:32:11.986Z,101053.87
2023-03-29T14:34:40.874Z,101056.21
2023-03-29T14:37:24.015Z,101060.17
2023-03-29T14:39:52.981Z,101059.14
2023-03-29T14:42:26.911Z,101054.80
2023-03-29T14:45:04.289Z,101057.39
2023-03-29T14:47:34.215Z,101064.20
2023-03-29T14:50:04.262Z,101062.52
2023-03-29T14:52:33.824Z,101062.42
2023-03-29T14:55:04.401Z,101063.17
2023-03-29T14:57:36.578Z,101059.34
2023-03-29T15:00:19.554Z,101064.21
2023-03-29T15:02:58.189Z,101069.23
2023-03-29T15:05:34.616Z,101068.08
2023-03-29T15:08:04.236Z,101071.34
2023-03-29T15:10:35.629Z,101071.38
2023-03-29T15:13:06.766Z,101075.67
2023-03-29T15:15:38.619Z,101078.88
2023-03-29T15:18:10.078Z,101084.84
2023-03-29T15:20:40.169Z,101088.63
2023-03-29T15:23:08.344Z,101087.11
2023-03-29T15:25:52.029Z,101086.59
2023-03-29T15:28:32.764Z,101091.65
2023-03-29T15:31:08.086Z,101094.88
2023-03-29T15:33:38.987Z,101093.13
2023-03-29T15:36:10.365Z,101097.95
2023-03-29T15:38:44.753Z,101097.87
2023-03-29T15:41:14.662Z,101097.85
2023-03-29T15:43:43.307Z,101101.16
2023-03-29T15:46:14.136Z,101097.30
2023-03-29T15:48:43.337Z,101102.95
2023-03-29T15:51:13.179Z,101104.87
2023-03-29T15:53:42.764Z,101108.02
2023-03-29T15:56:18.289Z,101109.95
2023-03-29T15:58:47.725Z,101112.29
2023-03-29T16:01:36.767Z,101117.15
2023-03-29T16:04:12.575Z,101116.34
2023-03-29T16:06:41.714Z,101123.20
2023-03-29T16:09:12.063Z,101125.56
2023-03-29T16:11:41.943Z,101124.17
2023-03-29T16:14:23.341Z,101128.83
2023-03-29T16:16:52.631Z,101125.34
2023-03-29T16:19:22.191Z,101132.98
2023-03-29T16:21:50.525Z,101134.17
2023-03-29T16:24:27.414Z,101133.02
2023-03-29T16:26:56.709Z,101135.86
2023-03-29T16:29:25.745Z,101135.86
2023-03-29T16:31:54.915Z,101136.09
2023-03-29T16:34:23.695Z,101138.64
2023-03-29T16:36:53.237Z,101141.09
2023-03-29T16:39:21.746Z,101145.94
2023-03-29T16:41:50.564Z,101147.00
2023-03-29T16:44:23.929Z,101154.48
2023-03-29T16:46:57.973Z,101155.98
2023-03-29T16:49:26.245Z,101158.83
2023-03-29T16:51:54.527Z,101163.28
2023-03-29T16:54:25.876Z,101166.87
2023-03-29T16:56:54.394Z,101170.08
2023-03-29T16:59:23.140Z,101171.98
2023-03-29T17:01:51.713Z,101179.02
2023-03-29T17:04:20.561Z,101182.15
2023-03-29T17:06:48.893Z,101181.50
2023-03-29T17:09:17.736Z,101183.01
2023-03-29T17:11:46.464Z,101192.75
2023-03-29T17:14:15.381Z,101195.70
2023-03-29T17:16:43.911Z,101202.98
2023-03-29T17:19:12.739Z,101211.36
2023-03-29T17:21:41.318Z,101211.03
2023-03-29T17:24:10.003Z,101214.08
2023-03-29T17:26:38.497Z,101215.86
2023-03-29T17:29:06.761Z,101217.29
2023-03-29T17:31:36.407Z,101218.67
2023-03-29T17:34:07.923Z,101220.35
2023-03-29T17:36:37.577Z,101223.74
2023-03-29T17:39:10.009Z,101222.97
2023-03-29T17:41:38.183Z,101226.56
2023-03-29T17:44:07.651Z,101235.06
2023-03-29T17:46:38.079Z,101239.70
2023-03-29T17:49:06.596Z,101240.95
2023-03-29T17:51:34.982Z,101243.68
2023-03-29T17:54:04.071Z,101247.05
2023-03-29T17:56:32.757Z,101251.92
2023-03-29T17:59:01.082Z,101257.08
2023-03-29T18:01:29.561Z,101259.17
2023-03-29T18:03:57.798Z,101261.39
2023-03-29T18:06:27.193Z,101264.10
2023-03-29T18:08:56.625Z,101264.79
2023-03-29T18:11:25.774Z,101263.48
2023-03-29T18:13:54.906Z,101267.09
2023-03-29T18:16:23.728Z,101268.61
2023-03-29T18:18:52.374Z,101272.14
2023-03-29T18:21:23.102Z,101278.23
2023-03-29T18:23:54.362Z,101279.18
2023-03-29T18:26:24.421Z,101279.89
2023-03-29T18:28:53.404Z,101281.01
2023-03-29T18:31:22.721Z,101277.44
2023-03-29T18:33:51.145Z,101275.23
2023-03-29T18:36:19.881Z,101276.44
2023-03-29T18:38:48.211Z,101277.20
2023-03-29T18:41:17.172Z,101282.14
2023-03-29T18:43:47.022Z,101286.55
2023-03-29T18:46:16.143Z,101291.22
2023-03-29T18:48:44.501Z,101291.38
2023-03-29T18:51:15.137Z,101295.05
2023-03-29T18:53:44.531Z,101296.19
2023-03-29T18:56:12.919Z,101296.27
2023-03-29T18:58:41.198Z,101293.23
2023-03-29T19:01:10.986Z,101292.30
2023-03-29T19:03:39.745Z,101295.34
2023-03-29T19:06:14.408Z,101296.23
2023-03-29T19:08:42.567Z,101297.23
2023-03-29T19:11:14.351Z,101294.55
2023-03-29T19:13:43.249Z,101294.69
2023-03-29T19:16:12.607Z,101296.41
2023-03-29T19:18:42.251Z,101300.52
2023-03-29T19:21:10.844Z,101301.14
2023-03-29T19:23:42.695Z,101299.10
2023-03-29T19:26:11.791Z,101299.10
2023-03-29T19:28:42.424Z,101300.58
2023-03-29T19:31:10.767Z,101302.02
2023-03-29T19:33:41.340Z,101298.34
2023-03-29T19:36:09.730Z,101294.73
2023-03-29T19:38:38.058Z,101297.61
2023-03-29T19:41:10.251Z,101296.50
2023-03-29T19:43:38.690Z,101298.72
2023-03-29T19:46:10.618Z,101302.34
2023-03-29T19:48:39.922Z,101297.88
2023-03-29T19:51:08.993Z,101300.49
2023-03-29T19:53:38.882Z,101298.70
2023-03-29T19:56:11.099Z,101299.24
2023-03-29T19:58:39.557Z,101298.52
2023-03-29T20:01:08.047Z,101297.82
2023-03-29T20:03:36.580Z,101305.70
2023-03-29T20:06:05.200Z,101308.61
2023-03-29T20:08:33.481Z,101306.67
2023-03-29T20:11:04.146Z,101307.81
2023-03-29T20:13:38.773Z,101307.14
2023-03-29T20:16:14.892Z,101303.63
2023-03-29T20:18:47.076Z,101309.89
2023-03-29T20:21:18.936Z,101307.39
2023-03-29T20:23:47.719Z,101302.78
2023-03-29T20:26:16.093Z,101301.86
2023-03-29T20:28:44.677Z,101299.08
2023-03-29T20:31:13.367Z,101297.22
2023-03-29T20:33:44.507Z,101296.27
2023-03-29T20:36:12.770Z,101294.42
2023-03-29T20:38:41.167Z,101292.80
2023-03-29T20:41:11.083Z,101290.92
2023-03-29T20:43:41.098Z,101291.77
2023-03-29T20:46:18.468Z,101290.44
2023-03-29T20:48:53.624Z,101292.91
2023-03-29T20:51:28.249Z,101291.80
2023-03-29T20:54:04.944Z,101297.59
2023-03-29T20:56:40.170Z,101299.77
2023-03-29T20:59:10.850Z,101296.30
2023-03-29T21:01:40.997Z,101294.23
2023-03-29T21:04:11.155Z,101294.61
2023-03-29T21:06:39.895Z,101295.30
2023-03-29T21:09:08.741Z,101293.79
2023-03-29T21:11:36.992Z,101288.39
2023-03-29T21:14:05.280Z,101290.25
2023-03-29T21:16:33.546Z,101297.19
2023-03-29T21:19:01.831Z,101291.30
2023-03-29T21:21:30.210Z,101296.17
2023-03-29T21:23:58.386Z,101299.36
2023-03-29T21:26:27.371Z,101296.07
2023-03-29T21:28:55.543Z,101294.56
2023-03-29T21:31:24.211Z,101297.71
2023-03-29T21:33:54.962Z,101301.86
2023-03-29T21:36:23.884Z,101304.87
2023-03-29T21:38:52.851Z,101311.94
2023-03-29T21:41:22.060Z,101315.58
2023-03-29T21:43:50.543Z,101317.27
2023-03-29T21:46:18.768Z,101312.60
2023-03-29T21:48:47.068Z,101310.84
2023-03-29T21:51:15.557Z,101314.92
2023-03-29T21:53:44.455Z,101310.73
2023-03-29T21:56:13.348Z,101307.35
2023-03-29T21:58:42.056Z,101307.82
2023-03-29T22:01:10.689Z,101310.60
2023-03-29T22:03:39.207Z,101312.78
2023-03-29T22:06:09.690Z,101314.23
2023-03-29T22:08:41.083Z,101308.38
2023-03-29T22:11:14.033Z,101311.25
2023-03-29T22:13:43.569Z,101315.80
2023-03-29T22:16:18.896Z,101318.95
2023-03-29T22:18:52.727Z,101320.90
2023-03-29T22:21:26.736Z,101320.42
2023-03-29T22:23:57.192Z,101316.70
2023-03-29T22:26:28.611Z,101311.58
2023-03-29T22:28:58.994Z,101312.07
2023-03-29T22:31:29.338Z,101317.90
2023-03-29T22:33:58.569Z,101313.11
2023-03-29T22:36:30.121Z,101312.92
2023-03-29T22:38:58.518Z,101310.45
2023-03-29T22:41:27.834Z,101305.90
2023-03-29T22:43:58.347Z,101310.56
2023-03-29T22:46:27.588Z,101311.39
2023-03-29T22:48:56.007Z,101308.55
2023-03-29T22:51:24.382Z,101310.31
2023-03-29T22:53:52.595Z,101315.52
2023-03-29T22:56:22.104Z,101310.33
2023-03-29T22:58:51.264Z,101314.64
2023-03-29T23:01:19.793Z,101311.27
2023-03-29T23:03:48.146Z,101311.48
2023-03-29T23:06:16.395Z,101317.39
2023-03-29T23:08:44.808Z,101317.16
2023-03-29T23:11:13.266Z,101317.33
2023-03-29T23:13:41.534Z,101313.87
2023-03-29T23:16:10.149Z,101319.30
2023-03-29T23:18:39.006Z,101320.38
2023-03-29T23:21:09.479Z,101322.15
2023-03-29T23:23:38.534Z,101322.11
2023-03-29T23:26:12.124Z,101322.05
2023-03-29T23:28:41.243Z,101324.86
2023-03-29T23:31:18.092Z,101325.02
2023-03-29T23:33:46.690Z,101325.83
2023-03-29T23:36:17.626Z,101329.21
2023-03-29T23:38:47.085Z,101326.15
2023-03-29T23:41:16.869Z,101326.27
2023-03-29T23:43:47.413Z,101324.22
2023-03-29T23:46:19.030Z,101322.70
2023-03-29T23:48:49.310Z,101325.50
2023-03-29T23:51:19.036Z,101325.84
2023-03-29T23:53:47.958Z,101322.39
2023-03-29T23:56:16.642Z,101318.40
2023-03-29T23:58:44.929Z,101317.90
